X  Chiuso Dati meteorologici dell'aviazione (METAR)     KOMA Eppley Airfield
Temperatura
61°F Temperatura
36°F Punto di rugiada
39% Umidità



Vento
18 MPH
29 KM/H
8 M/S
16 KTS



170°
Sud
Condizioni attuali

Parzialmente nuvoloso Parzialmente nuvoloso
Pressione 1013.55 (hPa) - 29.93 (inHg)
Visibilità 10 (miglio) - 16.1 (km)
Aeroporto
Aeroporto-code KOMA

Posizione: Eppley Airfield
Distanza: 20 (mi)

Metar:
KOMA 131352Z 17016KT 10SM FEW250 16/02 A2993 RMK AO2 SLP133 T01560022

Ore: 04-13-2024 13:52 CDT